createdAt,value
2017-05-14T00:00:47.534Z,974.93
2017-05-14T00:01:50.496Z,974.90
2017-05-14T00:02:52.867Z,974.92
2017-05-14T00:03:55.230Z,974.95
2017-05-14T00:04:57.625Z,974.94
2017-05-14T00:05:59.981Z,974.93
2017-05-14T00:07:02.906Z,974.94
2017-05-14T00:08:05.290Z,974.96
2017-05-14T00:09:07.662Z,975.00
2017-05-14T00:10:10.027Z,975.01
2017-05-14T00:11:12.414Z,975.03
2017-05-14T00:12:15.406Z,975.05
2017-05-14T00:13:17.795Z,975.04
2017-05-14T00:14:20.165Z,975.01
2017-05-14T00:15:22.532Z,975.05
2017-05-14T00:16:24.912Z,975.08
2017-05-14T00:17:27.820Z,975.06
2017-05-14T00:18:30.178Z,975.06
2017-05-14T00:19:32.540Z,975.06
2017-05-14T00:20:34.891Z,975.08
2017-05-14T00:21:37.278Z,975.07
2017-05-14T00:22:40.271Z,975.07
2017-05-14T00:23:42.633Z,975.08
2017-05-14T00:24:45.011Z,975.04
2017-05-14T00:25:47.388Z,975.04
2017-05-14T00:26:49.752Z,975.04
2017-05-14T00:27:52.734Z,975.05
2017-05-14T00:28:55.102Z,975.05
2017-05-14T00:29:57.457Z,975.01
2017-05-14T00:30:59.830Z,975.03
2017-05-14T00:32:02.189Z,975.06
2017-05-14T00:33:05.099Z,975.04
2017-05-14T00:34:07.474Z,975.09
2017-05-14T00:35:09.848Z,975.12
2017-05-14T00:36:12.246Z,975.11
2017-05-14T00:37:14.624Z,975.16
2017-05-14T00:38:17.612Z,975.18
2017-05-14T00:39:19.990Z,975.20
2017-05-14T00:40:22.387Z,975.21
2017-05-14T00:41:24.765Z,975.25
2017-05-14T00:42:27.161Z,975.22
2017-05-14T00:43:30.137Z,975.26
2017-05-14T00:44:32.724Z,975.26
2017-05-14T00:45:35.093Z,975.25
2017-05-14T00:46:37.455Z,975.28
2017-05-14T00:47:39.807Z,975.29
2017-05-14T00:48:42.767Z,975.30
2017-05-14T00:49:45.123Z,975.29
2017-05-14T00:50:47.491Z,975.31
2017-05-14T00:51:49.854Z,975.27
2017-05-14T00:52:52.214Z,975.31
2017-05-14T00:53:55.140Z,975.30
2017-05-14T00:54:57.498Z,975.32
2017-05-14T00:55:59.888Z,975.32
2017-05-14T00:57:02.246Z,975.36
2017-05-14T00:58:04.610Z,975.39
2017-05-14T00:59:07.800Z,975.35
2017-05-14T01:00:10.183Z,975.36
2017-05-14T01:01:12.556Z,975.39
2017-05-14T01:02:14.920Z,975.39
2017-05-14T01:03:17.301Z,975.43
2017-05-14T01:04:20.284Z,975.44
2017-05-14T01:05:22.645Z,975.41
2017-05-14T01:06:25.040Z,975.45
2017-05-14T01:07:27.396Z,975.47
2017-05-14T01:08:29.782Z,975.47
2017-05-14T01:09:32.693Z,975.49
2017-05-14T01:10:35.051Z,975.52
2017-05-14T01:11:37.427Z,975.50
2017-05-14T01:12:39.799Z,975.54
2017-05-14T01:13:42.184Z,975.54
2017-05-14T01:14:45.324Z,975.58
2017-05-14T01:15:47.690Z,975.54
2017-05-14T01:16:50.042Z,975.55
2017-05-14T01:17:52.408Z,975.59
2017-05-14T01:18:54.767Z,975.56
2017-05-14T01:19:57.723Z,975.59
2017-05-14T01:21:00.077Z,975.62
2017-05-14T01:22:02.439Z,975.67
2017-05-14T01:23:04.800Z,975.70
2017-05-14T01:24:07.184Z,975.69
2017-05-14T01:25:10.358Z,975.73
2017-05-14T01:26:12.728Z,975.72
2017-05-14T01:27:15.087Z,975.72
2017-05-14T01:28:17.440Z,975.74
2017-05-14T01:29:19.824Z,975.77
2017-05-14T01:30:22.788Z,975.74
2017-05-14T01:31:25.189Z,975.72
2017-05-14T01:32:27.554Z,975.75
2017-05-14T01:33:29.925Z,975.71
2017-05-14T01:34:32.499Z,975.71
2017-05-14T01:35:35.468Z,975.73
2017-05-14T01:36:37.861Z,975.71
2017-05-14T01:37:40.217Z,975.73
2017-05-14T01:38:42.589Z,975.73
2017-05-14T01:39:44.954Z,975.74
2017-05-14T01:40:47.928Z,975.75
2017-05-14T01:41:50.281Z,975.78
2017-05-14T01:42:52.633Z,975.77
2017-05-14T01:43:55.025Z,975.79
2017-05-14T01:44:57.396Z,975.83
2017-05-14T01:46:00.355Z,975.82
2017-05-14T01:47:02.743Z,975.81
2017-05-14T01:48:05.142Z,975.83
2017-05-14T01:49:07.479Z,975.88
2017-05-14T01:50:09.833Z,975.87
2017-05-14T01:51:12.794Z,975.85
2017-05-14T01:52:15.188Z,975.84
2017-05-14T01:53:17.550Z,975.88
2017-05-14T01:54:19.910Z,975.86
2017-05-14T01:55:22.281Z,975.88
2017-05-14T01:56:25.223Z,975.89
2017-05-14T01:57:27.572Z,975.90
2017-05-14T01:58:29.941Z,975.92
2017-05-14T01:59:32.326Z,975.90
2017-05-14T02:00:34.682Z,975.92
2017-05-14T02:01:37.652Z,975.94
2017-05-14T02:02:40.025Z,975.92
2017-05-14T02:03:42.384Z,975.91
2017-05-14T02:04:44.739Z,975.91
2017-05-14T02:05:47.106Z,975.93
2017-05-14T02:06:50.063Z,975.94
2017-05-14T02:07:52.447Z,975.96
2017-05-14T02:08:54.788Z,975.93
2017-05-14T02:09:57.150Z,975.92
2017-05-14T02:10:59.513Z,975.91
2017-05-14T02:12:03.623Z,975.94
2017-05-14T02:13:05.982Z,975.90
2017-05-14T02:14:08.362Z,975.97
2017-05-14T02:15:10.701Z,975.96
2017-05-14T02:16:13.060Z,975.95
2017-05-14T02:17:15.970Z,975.99
2017-05-14T02:18:18.320Z,975.99
2017-05-14T02:19:20.676Z,975.99
2017-05-14T02:20:23.043Z,976.04
2017-05-14T02:21:25.414Z,976.02
2017-05-14T02:22:28.485Z,976.05
2017-05-14T02:23:30.850Z,976.10
2017-05-14T02:24:33.212Z,976.14
2017-05-14T02:25:35.570Z,976.16
2017-05-14T02:26:37.928Z,976.21
2017-05-14T02:27:40.902Z,976.23
2017-05-14T02:28:43.259Z,976.25
2017-05-14T02:29:45.615Z,976.22
2017-05-14T02:30:47.983Z,976.28
2017-05-14T02:31:50.348Z,976.28
2017-05-14T02:32:53.298Z,976.28
2017-05-14T02:33:55.656Z,976.27
2017-05-14T02:34:58.025Z,976.30
2017-05-14T02:36:00.379Z,976.33
2017-05-14T02:37:02.761Z,976.32
2017-05-14T02:38:05.671Z,976.35
2017-05-14T02:39:08.034Z,976.31
2017-05-14T02:40:10.391Z,976.34
2017-05-14T02:41:12.766Z,976.34
2017-05-14T02:42:15.125Z,976.40
2017-05-14T02:43:20.089Z,976.38
2017-05-14T02:44:22.453Z,976.38
2017-05-14T02:45:24.815Z,976.39
2017-05-14T02:46:27.174Z,976.38
2017-05-14T02:47:29.536Z,976.39
2017-05-14T02:48:32.493Z,976.45
2017-05-14T02:49:34.862Z,976.42
2017-05-14T02:50:37.227Z,976.49
2017-05-14T02:51:39.581Z,976.54
2017-05-14T02:52:41.941Z,976.56
2017-05-14T02:53:44.912Z,976.62
2017-05-14T02:54:47.289Z,976.61
2017-05-14T02:55:49.652Z,976.67
2017-05-14T02:56:52.015Z,976.66
2017-05-14T02:57:54.381Z,976.69
2017-05-14T02:58:57.341Z,976.72
2017-05-14T02:59:59.703Z,976.67
2017-05-14T03:01:02.072Z,976.72
2017-05-14T03:02:04.427Z,976.75
2017-05-14T03:03:06.814Z,976.72
2017-05-14T03:04:09.771Z,976.72
2017-05-14T03:05:12.122Z,976.76
2017-05-14T03:06:14.500Z,976.77
2017-05-14T03:07:16.851Z,976.75
2017-05-14T03:08:19.216Z,976.77
2017-05-14T03:09:22.169Z,976.80
2017-05-14T03:10:24.518Z,976.82
2017-05-14T03:11:26.884Z,976.81
2017-05-14T03:12:29.240Z,976.77
2017-05-14T03:13:31.607Z,976.82
2017-05-14T03:14:34.573Z,976.85
2017-05-14T03:15:36.914Z,976.87
2017-05-14T03:16:39.274Z,976.87
2017-05-14T03:17:41.664Z,976.82
2017-05-14T03:18:44.027Z,976.87
2017-05-14T03:19:48.901Z,976.91
2017-05-14T03:20:51.256Z,976.90
2017-05-14T03:21:53.614Z,976.92
2017-05-14T03:22:55.975Z,976.95
2017-05-14T03:23:58.341Z,976.96
2017-05-14T03:25:01.297Z,976.98
2017-05-14T03:26:03.652Z,977.01
2017-05-14T03:27:06.016Z,977.01
2017-05-14T03:28:08.379Z,977.01
2017-05-14T03:29:10.731Z,977.00
2017-05-14T03:30:13.652Z,976.99
2017-05-14T03:31:16.016Z,977.00
2017-05-14T03:32:18.576Z,977.02
2017-05-14T03:33:20.933Z,977.06
2017-05-14T03:34:23.524Z,977.05
2017-05-14T03:35:26.485Z,977.09
2017-05-14T03:36:28.836Z,977.11
2017-05-14T03:37:31.200Z,977.12
2017-05-14T03:38:33.770Z,977.13
2017-05-14T03:39:36.132Z,977.16
2017-05-14T03:40:39.091Z,977.17
2017-05-14T03:41:41.451Z,977.13
2017-05-14T03:42:43.803Z,977.14
2017-05-14T03:43:46.157Z,977.13
2017-05-14T03:44:48.528Z,977.17
2017-05-14T03:45:51.518Z,977.13
2017-05-14T03:46:53.870Z,977.17
2017-05-14T03:47:56.225Z,977.17
2017-05-14T03:48:58.590Z,977.17
2017-05-14T03:50:00.944Z,977.17
2017-05-14T03:51:03.915Z,977.15
2017-05-14T03:52:06.285Z,977.18
2017-05-14T03:53:08.637Z,977.20
2017-05-14T03:54:10.992Z,977.21
2017-05-14T03:55:13.393Z,977.18
2017-05-14T03:56:16.319Z,977.25
2017-05-14T03:57:18.678Z,977.26
2017-05-14T03:58:21.064Z,977.26
2017-05-14T03:59:23.432Z,977.23
2017-05-14T04:00:25.800Z,977.24
2017-05-14T04:01:28.714Z,977.23
2017-05-14T04:02:31.071Z,977.26
2017-05-14T04:03:33.448Z,977.25
2017-05-14T04:04:35.801Z,977.29
2017-05-14T04:05:38.162Z,977.29
2017-05-14T04:06:41.068Z,977.25
2017-05-14T04:07:43.434Z,977.26
2017-05-14T04:08:45.799Z,977.30
2017-05-14T04:09:48.149Z,977.27
2017-05-14T04:10:50.506Z,977.27
2017-05-14T04:11:53.468Z,977.31
2017-05-14T04:12:55.840Z,977.31
2017-05-14T04:13:58.210Z,977.32
2017-05-14T04:15:00.571Z,977.31
2017-05-14T04:16:02.919Z,977.37
2017-05-14T04:17:05.882Z,977.33
2017-05-14T04:18:08.232Z,977.39
2017-05-14T04:19:10.613Z,977.43
2017-05-14T04:20:12.954Z,977.43
2017-05-14T04:21:15.327Z,977.43
2017-05-14T04:22:18.286Z,977.41
2017-05-14T04:23:20.646Z,977.44
2017-05-14T04:24:22.999Z,977.46
2017-05-14T04:25:25.365Z,977.44
2017-05-14T04:26:27.732Z,977.45
2017-05-14T04:27:30.687Z,977.47
2017-05-14T04:28:33.046Z,977.47
2017-05-14T04:29:35.404Z,977.48
2017-05-14T04:30:37.762Z,977.50
2017-05-14T04:31:40.113Z,977.53
2017-05-14T04:32:43.023Z,977.46
2017-05-14T04:33:45.382Z,977.49
2017-05-14T04:34:47.751Z,977.50
2017-05-14T04:35:50.105Z,977.50
2017-05-14T04:36:52.476Z,977.50
2017-05-14T04:37:55.385Z,977.52
2017-05-14T04:38:57.742Z,977.49
2017-05-14T04:40:00.101Z,977.54
2017-05-14T04:41:02.468Z,977.54
2017-05-14T04:42:04.824Z,977.55
2017-05-14T04:43:07.728Z,977.54
2017-05-14T04:44:10.086Z,977.54
2017-05-14T04:45:12.451Z,977.55
2017-05-14T04:46:14.812Z,977.56
2017-05-14T04:47:17.172Z,977.51
2017-05-14T04:48:20.132Z,977.55
2017-05-14T04:49:22.500Z,977.54
2017-05-14T04:50:24.862Z,977.54
2017-05-14T04:51:27.217Z,977.55
2017-05-14T04:52:29.575Z,977.55
2017-05-14T04:53:32.530Z,977.56
2017-05-14T04:54:34.914Z,977.50
2017-05-14T04:55:37.269Z,977.52
2017-05-14T04:56:39.625Z,977.53
2017-05-14T04:57:41.989Z,977.53
2017-05-14T04:58:44.904Z,977.52
2017-05-14T04:59:47.259Z,977.51
2017-05-14T05:00:49.627Z,977.52
2017-05-14T05:01:51.989Z,977.51
2017-05-14T05:02:54.337Z,977.51
2017-05-14T05:03:57.257Z,977.52
2017-05-14T05:04:59.606Z,977.49
2017-05-14T05:06:01.969Z,977.50
2017-05-14T05:07:04.337Z,977.48
2017-05-14T05:08:06.683Z,977.46
2017-05-14T05:09:09.649Z,977.51
2017-05-14T05:10:12.011Z,977.41
2017-05-14T05:11:14.385Z,977.43
2017-05-14T05:12:16.747Z,977.44
2017-05-14T05:13:19.131Z,977.46
2017-05-14T05:14:22.037Z,977.43
2017-05-14T05:15:24.394Z,977.45
2017-05-14T05:16:26.753Z,977.46
2017-05-14T05:17:29.113Z,977.45
2017-05-14T05:18:31.480Z,977.45
2017-05-14T05:19:34.394Z,977.47
2017-05-14T05:20:36.747Z,977.46
2017-05-14T05:21:39.108Z,977.48
2017-05-14T05:22:41.479Z,977.44
2017-05-14T05:23:43.840Z,977.39
2017-05-14T05:24:46.809Z,977.39
2017-05-14T05:25:49.199Z,977.39
2017-05-14T05:26:51.550Z,977.37
2017-05-14T05:27:53.915Z,977.34
2017-05-14T05:28:56.275Z,977.32
2017-05-14T05:29:59.240Z,977.31
2017-05-14T05:31:01.606Z,977.33
2017-05-14T05:32:03.956Z,977.32
2017-05-14T05:33:06.314Z,977.32
2017-05-14T05:34:08.698Z,977.30
2017-05-14T05:35:11.665Z,977.29
2017-05-14T05:36:14.012Z,977.29
2017-05-14T05:37:16.369Z,977.28
2017-05-14T05:38:18.729Z,977.24
2017-05-14T05:39:21.090Z,977.27
2017-05-14T05:40:23.992Z,977.31
2017-05-14T05:41:26.350Z,977.28
2017-05-14T05:42:28.706Z,977.31
2017-05-14T05:43:31.082Z,977.30
2017-05-14T05:44:33.429Z,977.32
2017-05-14T05:45:36.344Z,977.31
2017-05-14T05:46:38.705Z,977.28
2017-05-14T05:47:41.067Z,977.31
2017-05-14T05:48:43.424Z,977.34
2017-05-14T05:49:45.793Z,977.31
2017-05-14T05:50:48.699Z,977.29
2017-05-14T05:51:51.050Z,977.31
2017-05-14T05:52:53.409Z,977.29
2017-05-14T05:53:55.762Z,977.26
2017-05-14T05:54:58.123Z,977.30
2017-05-14T05:56:01.030Z,977.29
2017-05-14T05:57:46.597Z,977.32
2017-05-14T05:58:48.946Z,977.31
2017-05-14T05:59:51.306Z,977.30
2017-05-14T06:00:53.657Z,977.31
2017-05-14T06:01:56.565Z,977.28
2017-05-14T06:02:58.927Z,977.26
2017-05-14T06:04:01.286Z,977.27
2017-05-14T06:05:03.638Z,977.26
2017-05-14T06:06:05.996Z,977.27
2017-05-14T06:07:08.959Z,977.27
2017-05-14T06:08:11.325Z,977.26
2017-05-14T06:09:13.668Z,977.23
2017-05-14T06:10:16.020Z,977.25
2017-05-14T06:11:18.398Z,977.29
2017-05-14T06:12:21.309Z,977.24
2017-05-14T06:13:23.667Z,977.30
2017-05-14T06:14:26.030Z,977.22
2017-05-14T06:15:28.383Z,977.26
2017-05-14T06:16:30.747Z,977.23
2017-05-14T06:17:33.700Z,977.24
2017-05-14T06:18:36.069Z,977.27
2017-05-14T06:19:38.421Z,977.24
2017-05-14T06:20:40.774Z,977.25
2017-05-14T06:21:43.132Z,977.26
2017-05-14T06:22:46.041Z,977.24
2017-05-14T06:23:48.407Z,977.27
2017-05-14T06:24:50.763Z,977.24
2017-05-14T06:25:53.124Z,977.23
2017-05-14T06:26:55.490Z,977.23
2017-05-14T06:27:58.389Z,977.24
2017-05-14T06:29:00.744Z,977.25
2017-05-14T06:30:03.100Z,977.24
2017-05-14T06:31:05.462Z,977.23
2017-05-14T06:32:07.826Z,977.26
2017-05-14T06:33:10.726Z,977.24
2017-05-14T06:34:13.084Z,977.22
2017-05-14T06:35:15.458Z,977.19
2017-05-14T06:36:17.811Z,977.19
2017-05-14T06:37:20.166Z,977.20
2017-05-14T06:38:23.119Z,977.19
2017-05-14T06:39:25.481Z,977.19
2017-05-14T06:40:27.838Z,977.15
2017-05-14T06:41:30.193Z,977.16
2017-05-14T06:42:32.553Z,977.14
2017-05-14T06:43:35.457Z,977.15
2017-05-14T06:44:37.808Z,977.13
2017-05-14T06:45:40.167Z,977.17
2017-05-14T06:46:42.521Z,977.15
2017-05-14T06:47:44.876Z,977.16
2017-05-14T06:48:47.838Z,977.16
2017-05-14T06:49:50.199Z,977.19
2017-05-14T06:50:52.547Z,977.19
2017-05-14T06:51:54.902Z,977.17
2017-05-14T06:52:57.260Z,977.14
2017-05-14T06:54:00.170Z,977.13
2017-05-14T06:55:02.527Z,977.12
2017-05-14T06:56:04.886Z,977.16
2017-05-14T06:57:07.247Z,977.15
2017-05-14T06:58:09.600Z,977.16
2017-05-14T06:59:12.558Z,977.17
2017-05-14T07:00:14.914Z,977.17
2017-05-14T07:01:17.277Z,977.16
2017-05-14T07:02:19.634Z,977.17
2017-05-14T07:03:21.995Z,977.14
2017-05-14T07:04:25.204Z,977.10
2017-05-14T07:05:27.569Z,977.10
2017-05-14T07:06:29.917Z,977.10
2017-05-14T07:07:32.272Z,977.13
2017-05-14T07:08:34.632Z,977.11
2017-05-14T07:09:37.585Z,977.11
2017-05-14T07:10:39.962Z,977.12
2017-05-14T07:11:42.319Z,977.12
2017-05-14T07:12:44.678Z,977.05
2017-05-14T07:13:47.033Z,977.07
2017-05-14T07:14:49.998Z,977.04
2017-05-14T07:15:52.347Z,976.98
2017-05-14T07:16:54.703Z,976.97
2017-05-14T07:17:57.064Z,976.98
2017-05-14T07:18:59.423Z,976.99
2017-05-14T07:20:02.331Z,976.96
2017-05-14T07:21:04.686Z,976.93
2017-05-14T07:22:07.042Z,976.96
2017-05-14T07:23:09.403Z,976.92
2017-05-14T07:24:11.765Z,976.96
2017-05-14T07:25:14.723Z,976.90
2017-05-14T07:26:17.076Z,976.97
2017-05-14T07:27:19.437Z,976.91
2017-05-14T07:28:21.833Z,976.93
2017-05-14T07:29:24.173Z,976.92
2017-05-14T07:30:27.110Z,976.93
2017-05-14T07:31:29.461Z,976.89
2017-05-14T07:32:31.821Z,976.90
2017-05-14T07:33:34.188Z,976.89
2017-05-14T07:34:36.541Z,976.91
2017-05-14T07:35:39.503Z,976.89
2017-05-14T07:36:41.849Z,976.90
2017-05-14T07:37:44.198Z,976.85
2017-05-14T07:38:46.566Z,976.89
2017-05-14T07:39:48.921Z,976.86
2017-05-14T07:40:51.880Z,976.85
2017-05-14T07:41:54.249Z,976.86
2017-05-14T07:42:56.603Z,976.87
2017-05-14T07:43:58.964Z,976.88
2017-05-14T07:45:01.320Z,976.84
2017-05-14T07:46:04.278Z,976.85
2017-05-14T07:47:06.638Z,976.87
2017-05-14T07:48:09.006Z,976.90
2017-05-14T07:49:11.348Z,976.89
2017-05-14T07:50:13.716Z,976.87
2017-05-14T07:51:16.667Z,976.85
2017-05-14T07:52:19.026Z,976.83
2017-05-14T07:53:21.385Z,976.87
2017-05-14T07:54:23.738Z,976.84
2017-05-14T07:55:26.099Z,976.83
2017-05-14T07:56:29.058Z,976.82
2017-05-14T07:57:31.424Z,976.84
2017-05-14T07:58:33.776Z,976.80
2017-05-14T07:59:36.134Z,976.83
2017-05-14T08:00:38.489Z,976.80
2017-05-14T08:01:41.446Z,976.82
2017-05-14T08:02:43.799Z,976.83
2017-05-14T08:03:46.167Z,976.83
2017-05-14T08:04:48.530Z,976.82
2017-05-14T08:05:50.876Z,976.84
2017-05-14T08:06:53.831Z,976.87
2017-05-14T08:07:56.183Z,976.86
2017-05-14T08:08:58.543Z,976.84
2017-05-14T08:10:00.904Z,976.86
2017-05-14T08:11:03.259Z,976.81
2017-05-14T08:12:06.160Z,976.83
2017-05-14T08:13:08.513Z,976.81
2017-05-14T08:14:10.872Z,976.80
2017-05-14T08:15:13.234Z,976.79
2017-05-14T08:16:15.588Z,976.79
2017-05-14T08:17:18.496Z,976.74
2017-05-14T08:18:20.856Z,976.74
2017-05-14T08:19:23.221Z,976.71
2017-05-14T08:20:25.562Z,976.69
2017-05-14T08:21:27.921Z,976.69
2017-05-14T08:22:30.883Z,976.69
2017-05-14T08:23:33.238Z,976.63
2017-05-14T08:24:35.591Z,976.63
2017-05-14T08:25:37.952Z,976.65
2017-05-14T08:26:40.305Z,976.63
2017-05-14T08:27:43.260Z,976.62
2017-05-14T08:28:45.623Z,976.61
2017-05-14T08:29:47.982Z,976.65
2017-05-14T08:30:50.340Z,976.63
2017-05-14T08:31:52.693Z,976.61
2017-05-14T08:32:55.603Z,976.64
2017-05-14T08:33:57.960Z,976.64
2017-05-14T08:35:00.310Z,976.62
2017-05-14T08:36:02.670Z,976.65
2017-05-14T08:37:05.031Z,976.64
2017-05-14T08:38:07.990Z,976.63
2017-05-14T08:39:10.342Z,976.63
2017-05-14T08:40:12.703Z,976.62
2017-05-14T08:41:15.058Z,976.64
2017-05-14T08:42:17.421Z,976.64
2017-05-14T08:43:20.326Z,976.63
2017-05-14T08:44:22.692Z,976.65
2017-05-14T08:45:25.048Z,976.61
2017-05-14T08:46:27.408Z,976.60
2017-05-14T08:47:29.757Z,976.63
2017-05-14T08:48:32.667Z,976.59
2017-05-14T08:49:35.015Z,976.59
2017-05-14T08:50:37.368Z,976.52
2017-05-14T08:51:39.723Z,976.51
2017-05-14T08:52:42.079Z,976.52
2017-05-14T08:53:44.989Z,976.54
2017-05-14T08:54:47.358Z,976.48
2017-05-14T08:55:49.714Z,976.47
2017-05-14T08:56:52.067Z,976.45
2017-05-14T08:57:54.429Z,976.46
2017-05-14T08:58:57.347Z,976.44
2017-05-14T08:59:59.696Z,976.38
2017-05-14T09:01:02.072Z,976.39
2017-05-14T09:02:04.426Z,976.40
2017-05-14T09:03:06.775Z,976.39
2017-05-14T09:04:09.686Z,976.41
2017-05-14T09:05:12.045Z,976.38
2017-05-14T09:06:14.404Z,976.38
2017-05-14T09:07:16.755Z,976.40
2017-05-14T09:08:19.111Z,976.41
2017-05-14T09:09:22.084Z,976.37
2017-05-14T09:10:24.421Z,976.42
2017-05-14T09:11:26.775Z,976.35
2017-05-14T09:12:29.136Z,976.37
2017-05-14T09:13:31.494Z,976.36
2017-05-14T09:14:34.447Z,976.38
2017-05-14T09:15:36.805Z,976.39
2017-05-14T09:16:39.153Z,976.45
2017-05-14T09:17:41.507Z,976.39
2017-05-14T09:18:43.860Z,976.41
2017-05-14T09:19:46.774Z,976.42
2017-05-14T09:20:49.125Z,976.41
2017-05-14T09:21:51.487Z,976.43
2017-05-14T09:22:53.836Z,976.44
2017-05-14T09:23:56.203Z,976.43
2017-05-14T09:24:59.164Z,976.43
2017-05-14T09:26:01.512Z,976.44
2017-05-14T09:27:03.874Z,976.46
2017-05-14T09:28:06.221Z,976.46
2017-05-14T09:29:08.580Z,976.45
2017-05-14T09:30:11.534Z,976.46
2017-05-14T09:31:13.889Z,976.48
2017-05-14T09:32:16.247Z,976.45
2017-05-14T09:33:18.606Z,976.47
2017-05-14T09:34:20.957Z,976.49
2017-05-14T09:35:23.909Z,976.51
2017-05-14T09:36:26.272Z,976.49
2017-05-14T09:37:28.628Z,976.48
2017-05-14T09:38:30.990Z,976.50
2017-05-14T09:39:33.349Z,976.49
2017-05-14T09:40:36.260Z,976.50
2017-05-14T09:41:38.615Z,976.47
2017-05-14T09:42:40.983Z,976.48
2017-05-14T09:43:43.330Z,976.47
2017-05-14T09:44:45.689Z,976.45
2017-05-14T09:45:48.596Z,976.47
2017-05-14T09:46:50.949Z,976.50
2017-05-14T09:47:53.303Z,976.47
2017-05-14T09:48:55.663Z,976.49
2017-05-14T09:49:58.027Z,976.51
2017-05-14T09:51:00.928Z,976.47
2017-05-14T09:52:03.287Z,976.46
2017-05-14T09:53:05.647Z,976.49
2017-05-14T09:54:07.998Z,976.48
2017-05-14T09:55:10.356Z,976.50
2017-05-14T09:56:13.266Z,976.49
2017-05-14T09:57:15.624Z,976.50
2017-05-14T09:58:17.979Z,976.46
2017-05-14T09:59:20.332Z,976.48
2017-05-14T10:00:22.688Z,976.47
2017-05-14T10:01:25.643Z,976.47
2017-05-14T10:02:28.005Z,976.49
2017-05-14T10:03:30.352Z,976.50
2017-05-14T10:04:32.717Z,976.52
2017-05-14T10:05:35.074Z,976.49
2017-05-14T10:06:37.990Z,976.51
2017-05-14T10:07:40.341Z,976.54
2017-05-14T10:08:42.700Z,976.53
2017-05-14T10:09:45.047Z,976.54
2017-05-14T10:10:47.400Z,976.56
2017-05-14T10:11:50.360Z,976.55
2017-05-14T10:12:52.711Z,976.57
2017-05-14T10:13:55.062Z,976.63
2017-05-14T10:14:57.424Z,976.61
2017-05-14T10:15:59.782Z,976.65
2017-05-14T10:17:02.737Z,976.65
2017-05-14T10:18:05.089Z,976.65
2017-05-14T10:19:07.452Z,976.67
2017-05-14T10:20:09.801Z,976.63
2017-05-14T10:21:12.165Z,976.64
2017-05-14T10:22:15.124Z,976.69
2017-05-14T10:23:17.478Z,976.66
2017-05-14T10:24:19.838Z,976.65
2017-05-14T10:25:22.192Z,976.66
2017-05-14T10:26:24.548Z,976.64
2017-05-14T10:27:27.454Z,976.65
2017-05-14T10:28:29.813Z,976.69
2017-05-14T10:29:32.165Z,976.67
2017-05-14T10:30:34.524Z,976.69
2017-05-14T10:31:36.881Z,976.70
2017-05-14T10:32:39.838Z,976.66
2017-05-14T10:33:42.192Z,976.65
2017-05-14T10:34:44.550Z,976.67
2017-05-14T10:35:46.907Z,976.66
2017-05-14T10:36:49.262Z,976.66
2017-05-14T10:37:52.170Z,976.65
2017-05-14T10:38:54.528Z,976.69
2017-05-14T10:39:56.882Z,976.68
2017-05-14T10:40:59.244Z,976.71
2017-05-14T10:42:01.603Z,976.69
2017-05-14T10:43:04.555Z,976.68
2017-05-14T10:44:06.911Z,976.69
2017-05-14T10:45:09.266Z,976.67
2017-05-14T10:46:11.628Z,976.67
2017-05-14T10:47:13.985Z,976.66
2017-05-14T10:48:16.886Z,976.62
2017-05-14T10:49:19.245Z,976.72
2017-05-14T10:50:21.605Z,976.68
2017-05-14T10:51:23.958Z,976.72
2017-05-14T10:52:26.315Z,976.76
2017-05-14T10:53:29.272Z,976.74
2017-05-14T10:54:31.632Z,976.75
2017-05-14T10:55:33.995Z,976.78
2017-05-14T10:56:36.345Z,976.78
2017-05-14T10:57:38.694Z,976.76
2017-05-14T10:58:41.656Z,976.77
2017-05-14T10:59:44.018Z,976.80
2017-05-14T11:00:46.374Z,976.76
2017-05-14T11:01:48.730Z,976.77
2017-05-14T11:02:51.087Z,976.77
2017-05-14T11:03:53.985Z,976.77
2017-05-14T11:04:56.343Z,976.80
2017-05-14T11:05:58.704Z,976.82
2017-05-14T11:07:01.069Z,976.80
2017-05-14T11:08:03.413Z,976.80
2017-05-14T11:09:06.328Z,976.80
2017-05-14T11:10:08.674Z,976.82
2017-05-14T11:11:11.031Z,976.83
2017-05-14T11:12:13.391Z,976.82
2017-05-14T11:13:15.746Z,976.81
2017-05-14T11:14:18.705Z,976.85
2017-05-14T11:15:21.063Z,976.86
2017-05-14T11:16:23.421Z,976.85
2017-05-14T11:17:25.777Z,976.81
2017-05-14T11:18:28.137Z,976.81
2017-05-14T11:19:31.101Z,976.80
2017-05-14T11:20:33.656Z,976.82
2017-05-14T11:21:36.010Z,976.82
2017-05-14T11:22:38.374Z,976.82
2017-05-14T11:23:40.719Z,976.84
2017-05-14T11:24:43.678Z,976.84
2017-05-14T11:25:46.035Z,976.85
2017-05-14T11:26:48.390Z,976.87
2017-05-14T11:27:50.753Z,976.87
2017-05-14T11:28:53.109Z,976.89
2017-05-14T11:29:56.062Z,976.90
2017-05-14T11:30:58.421Z,976.92
2017-05-14T11:32:00.772Z,976.94
2017-05-14T11:33:03.134Z,976.93
2017-05-14T11:34:05.491Z,976.98
2017-05-14T11:35:08.447Z,976.99
2017-05-14T11:36:10.801Z,977.00
2017-05-14T11:37:13.159Z,977.02
2017-05-14T11:38:15.520Z,977.04
2017-05-14T11:39:17.881Z,977.08
2017-05-14T11:40:20.852Z,977.14
2017-05-14T11:41:23.209Z,977.16
2017-05-14T11:42:25.558Z,977.13
2017-05-14T11:43:27.909Z,977.16
2017-05-14T11:44:30.274Z,977.16
2017-05-14T11:45:33.227Z,977.20
2017-05-14T11:46:35.639Z,977.26
2017-05-14T11:47:37.963Z,977.22
2017-05-14T11:48:40.319Z,977.24
2017-05-14T11:49:42.671Z,977.32
2017-05-14T11:50:45.644Z,977.31
2017-05-14T11:51:47.998Z,977.30
2017-05-14T11:52:50.352Z,977.36
2017-05-14T11:53:52.719Z,977.36
2017-05-14T11:54:55.081Z,977.39
2017-05-14T11:55:57.995Z,977.40
2017-05-14T11:57:00.349Z,977.41
2017-05-14T11:58:02.718Z,977.40
2017-05-14T11:59:05.074Z,977.43
2017-05-14T12:00:07.436Z,977.47
2017-05-14T12:01:10.407Z,977.50
2017-05-14T12:02:12.765Z,977.53
2017-05-14T12:03:15.118Z,977.52
2017-05-14T12:04:17.477Z,977.57
2017-05-14T12:05:19.847Z,977.59
2017-05-14T12:06:22.803Z,977.64
2017-05-14T12:07:25.163Z,977.63
2017-05-14T12:08:27.534Z,977.67
2017-05-14T12:09:29.893Z,977.71
2017-05-14T12:10:32.252Z,977.74
2017-05-14T12:11:35.166Z,977.73
2017-05-14T12:12:37.528Z,977.79
2017-05-14T12:13:39.888Z,977.85
2017-05-14T12:14:42.262Z,977.87
2017-05-14T12:15:44.616Z,977.86
2017-05-14T12:16:47.534Z,977.86
2017-05-14T12:17:49.889Z,977.90
2017-05-14T12:18:52.245Z,977.91
2017-05-14T12:19:54.606Z,977.90
2017-05-14T12:20:56.975Z,977.88
2017-05-14T12:21:59.934Z,977.95
2017-05-14T12:23:02.293Z,977.95
2017-05-14T12:24:04.656Z,977.95
2017-05-14T12:25:07.021Z,977.95
2017-05-14T12:26:09.381Z,977.95
2017-05-14T12:27:12.346Z,977.90
2017-05-14T12:28:14.710Z,977.96
2017-05-14T12:29:17.067Z,977.91
2017-05-14T12:30:19.439Z,977.91
2017-05-14T12:31:21.801Z,977.88
2017-05-14T12:32:24.710Z,977.90
2017-05-14T12:33:27.071Z,977.93
2017-05-14T12:34:29.439Z,977.98
2017-05-14T12:35:31.799Z,978.01
2017-05-14T12:36:34.161Z,978.00
2017-05-14T12:37:37.123Z,978.06
2017-05-14T12:38:39.482Z,978.10
2017-05-14T12:39:41.852Z,978.09
2017-05-14T12:40:44.216Z,978.13
2017-05-14T12:41:46.572Z,978.12
2017-05-14T12:42:49.540Z,978.14
2017-05-14T12:43:51.902Z,978.14
2017-05-14T12:44:54.265Z,978.16
2017-05-14T12:45:56.628Z,978.15
2017-05-14T12:46:58.988Z,978.17
2017-05-14T12:48:01.901Z,978.19
2017-05-14T12:49:04.263Z,978.21
2017-05-14T12:50:06.627Z,978.23
2017-05-14T12:51:08.989Z,978.27
2017-05-14T12:52:11.356Z,978.25
2017-05-14T12:53:14.331Z,978.27
2017-05-14T12:54:16.689Z,978.30
2017-05-14T12:55:19.049Z,978.28
2017-05-14T12:56:21.405Z,978.24
2017-05-14T12:57:23.775Z,978.28
2017-05-14T12:58:26.694Z,978.28
2017-05-14T12:59:29.061Z,978.33
2017-05-14T13:00:31.425Z,978.30